Ivanka — T8A2606 — position and weather

sailwx.info

Track history (hours):
 
Tides and Currents Weather Stations Pressure Air Temp Water Temp Dewpoint Dewpoint Depression Visibility Wind Speed Wind Dir Waves Ship Positions

Ivanka

Last reported at 2017-Nov-14 00:49 UTC. Time now 2017-Nov-18 04:52 UTC.
Position N 40°52' E 028°30'.

Length 98 m; draft 4.7 m.

Type: Cargo ship. MMSI: 511520000.

Date/timePositionNaut miles runAvg speedWind from/ knotsBaromVisibWave heightAir tempDewpointWater temp
2017-Nov-14 00:49N 40°52' E 028°30'3 9.6
2017-Nov-14 00:30N 40°53' E 028°34'510.1
2017-Nov-14 00:00N 40°53' E 028°41'610.7
2017-Nov-13 23:29N 40°54' E 028°48'610.5
2017-Nov-13 22:57N 40°56' E 028°55'  
2017-Nov-11 16:22N 45°02' E 036°29'410.1
2017-Nov-11 15:59N 45°06' E 036°30'5 9.8
2017-Nov-11 15:30N 45°11' E 036°29'4 8.8
2017-Nov-11 15:00N 45°15' E 036°28'4 7.5
2017-Nov-11 14:30N 45°18' E 036°30'510.0
2017-Nov-11 14:00N 45°20' E 036°36'4 8.0
2017-Nov-11 13:30N 45°23' E 036°40'3 6.8
2017-Nov-11 13:00N 45°27' E 036°41'5 9.0
2017-Nov-11 12:28N 45°31' E 036°44'3 6.8
2017-Nov-11 12:00N 45°33' E 036°47'5 9.6
2017-Nov-11 11:30N 45°33' E 036°54'  
2017-Nov-04 18:40N 45°25' E 037°14'310.5
2017-Nov-04 18:22N 45°27' E 037°10'510.7
2017-Nov-04 17:55N 45°29' E 037°04'410.7
2017-Nov-04 17:30N 45°31' E 036°58'510.7
2017-Nov-04 17:00N 45°33' E 036°51'4 9.0
2017-Nov-04 16:30N 45°32' E 036°45'510.3
2017-Nov-04 16:00N 45°27' E 036°42'5 9.4
2017-Nov-04 15:30N 45°23' E 036°40'4 8.9
2017-Nov-04 15:00N 45°20' E 036°35'510.4
2017-Nov-04 14:30N 45°17' E 036°29'3 6.0
2017-Nov-04 14:00N 45°14' E 036°29'3 5.7
2017-Nov-04 13:30N 45°11' E 036°30'0 0.9
2017-Nov-04 12:59N 45°11' E 036°29'0 0.0
2017-Nov-04 12:29N 45°11' E 036°29'0 0.1
2017-Nov-04 12:00N 45°11' E 036°29'3 5.5
2017-Nov-04 11:30N 45°08' E 036°30'510.4
2017-Nov-04 11:00N 45°03' E 036°30'  
Track history (hours):
 
Tides and Currents Weather Stations Pressure Air Temp Water Temp Dewpoint Dewpoint Depression Visibility Wind Speed Wind Dir Waves Ship Positions

Ivanka

Last reported at 2017-Nov-14 00:49 UTC. Time now 2017-Nov-18 04:52 UTC.
Position N 40°52' E 028°30'.

Length 98 m; draft 4.7 m.

Type: Cargo ship. MMSI: 511520000.

Date/timePositionNaut miles runAvg speedWind from/ knotsBaromVisibWave heightAir tempDewpointWater temp
2017-Nov-14 00:49N 40°52' E 028°30'3 9.6
2017-Nov-14 00:30N 40°53' E 028°34'510.1
2017-Nov-14 00:00N 40°53' E 028°41'610.7
2017-Nov-13 23:29N 40°54' E 028°48'610.5
2017-Nov-13 22:57N 40°56' E 028°55'  
2017-Nov-11 16:22N 45°02' E 036°29'410.1
2017-Nov-11 15:59N 45°06' E 036°30'5 9.8
2017-Nov-11 15:30N 45°11' E 036°29'4 8.8
2017-Nov-11 15:00N 45°15' E 036°28'4 7.5
2017-Nov-11 14:30N 45°18' E 036°30'510.0
2017-Nov-11 14:00N 45°20' E 036°36'4 8.0
2017-Nov-11 13:30N 45°23' E 036°40'3 6.8
2017-Nov-11 13:00N 45°27' E 036°41'5 9.0
2017-Nov-11 12:28N 45°31' E 036°44'3 6.8
2017-Nov-11 12:00N 45°33' E 036°47'5 9.6
2017-Nov-11 11:30N 45°33' E 036°54'  
2017-Nov-04 18:40N 45°25' E 037°14'310.5
2017-Nov-04 18:22N 45°27' E 037°10'510.7
2017-Nov-04 17:55N 45°29' E 037°04'410.7
2017-Nov-04 17:30N 45°31' E 036°58'510.7
2017-Nov-04 17:00N 45°33' E 036°51'4 9.0
2017-Nov-04 16:30N 45°32' E 036°45'510.3
2017-Nov-04 16:00N 45°27' E 036°42'5 9.4
2017-Nov-04 15:30N 45°23' E 036°40'4 8.9
2017-Nov-04 15:00N 45°20' E 036°35'510.4
2017-Nov-04 14:30N 45°17' E 036°29'3 6.0
2017-Nov-04 14:00N 45°14' E 036°29'3 5.7
2017-Nov-04 13:30N 45°11' E 036°30'0 0.9
2017-Nov-04 12:59N 45°11' E 036°29'0 0.0
2017-Nov-04 12:29N 45°11' E 036°29'0 0.1
2017-Nov-04 12:00N 45°11' E 036°29'3 5.5
2017-Nov-04 11:30N 45°08' E 036°30'510.4
2017-Nov-04 11:00N 45°03' E 036°30'  

Dump ship's entire track history